sensor_id;sensor_type;location;lat;lon;timestamp;P1;durP1;ratioP1;P2;durP2;ratioP2
30872;SDS011;17579;42.690;2.586;2023-12-14T00:00:29;0.00;;;0.00;;
30872;SDS011;17579;42.690;2.586;2023-12-14T00:02:58;0.10;;;0.10;;
30872;SDS011;17579;42.690;2.586;2023-12-14T00:05:26;0.10;;;0.10;;
30872;SDS011;17579;42.690;2.586;2023-12-14T00:07:52;0.03;;;0.03;;
30872;SDS011;17579;42.690;2.586;2023-12-14T00:10:20;0.10;;;0.10;;
30872;SDS011;17579;42.690;2.586;2023-12-14T00:12:48;0.03;;;0.03;;
30872;SDS011;17579;42.690;2.586;2023-12-14T00:15:34;0.00;;;0.00;;
30872;SDS011;17579;42.690;2.586;2023-12-14T00:18:00;0.00;;;0.00;;
30872;SDS011;17579;42.690;2.586;2023-12-14T00:20:29;0.13;;;0.13;;
30872;SDS011;17579;42.690;2.586;2023-12-14T00:22:54;0.10;;;0.08;;
30872;SDS011;17579;42.690;2.586;2023-12-14T00:25:20;0.00;;;0.00;;
30872;SDS011;17579;42.690;2.586;2023-12-14T00:27:48;0.05;;;0.05;;
30872;SDS011;17579;42.690;2.586;2023-12-14T00:30:18;0.00;;;0.00;;
30872;SDS011;17579;42.690;2.586;2023-12-14T00:32:49;0.10;;;0.10;;
30872;SDS011;17579;42.690;2.586;2023-12-14T00:35:18;0.10;;;0.10;;
30872;SDS011;17579;42.690;2.586;2023-12-14T00:37:43;0.13;;;0.10;;
30872;SDS011;17579;42.690;2.586;2023-12-14T00:40:16;0.10;;;0.10;;
30872;SDS011;17579;42.690;2.586;2023-12-14T00:42:47;0.10;;;0.10;;
30872;SDS011;17579;42.690;2.586;2023-12-14T00:45:16;0.00;;;0.00;;
30872;SDS011;17579;42.690;2.586;2023-12-14T00:47:41;0.00;;;0.00;;
30872;SDS011;17579;42.690;2.586;2023-12-14T00:50:10;0.05;;;0.05;;
30872;SDS011;17579;42.690;2.586;2023-12-14T00:52:44;0.10;;;0.10;;
30872;SDS011;17579;42.690;2.586;2023-12-14T00:55:13;0.00;;;0.00;;
30872;SDS011;17579;42.690;2.586;2023-12-14T00:57:39;0.00;;;0.00;;
30872;SDS011;17579;42.690;2.586;2023-12-14T01:00:04;0.10;;;0.00;;
30872;SDS011;17579;42.690;2.586;2023-12-14T01:02:35;0.38;;;0.10;;
30872;SDS011;17579;42.690;2.586;2023-12-14T01:05:04;0.10;;;0.10;;
30872;SDS011;17579;42.690;2.586;2023-12-14T01:07:32;0.10;;;0.10;;
30872;SDS011;17579;42.690;2.586;2023-12-14T01:10:07;0.35;;;0.10;;
30872;SDS011;17579;42.690;2.586;2023-12-14T01:12:53;0.20;;;0.13;;
30872;SDS011;17579;42.690;2.586;2023-12-14T01:15:22;0.22;;;0.10;;
30872;SDS011;17579;42.690;2.586;2023-12-14T01:17:50;0.30;;;0.13;;
30872;SDS011;17579;42.690;2.586;2023-12-14T01:20:16;0.00;;;0.00;;
30872;SDS011;17579;42.690;2.586;2023-12-14T01:22:42;0.10;;;0.10;;
30872;SDS011;17579;42.690;2.586;2023-12-14T01:25:08;0.88;;;0.20;;
30872;SDS011;17579;42.690;2.586;2023-12-14T01:27:33;0.10;;;0.10;;
30872;SDS011;17579;42.690;2.586;2023-12-14T01:29:59;0.00;;;0.00;;
30872;SDS011;17579;42.690;2.586;2023-12-14T01:32:25;0.50;;;0.05;;
30872;SDS011;17579;42.690;2.586;2023-12-14T01:34:53;0.10;;;0.10;;
30872;SDS011;17579;42.690;2.586;2023-12-14T01:37:22;0.00;;;0.00;;
30872;SDS011;17579;42.690;2.586;2023-12-14T01:39:48;0.00;;;0.00;;
30872;SDS011;17579;42.690;2.586;2023-12-14T01:42:22;0.00;;;0.00;;
30872;SDS011;17579;42.690;2.586;2023-12-14T01:44:48;0.20;;;0.10;;
30872;SDS011;17579;42.690;2.586;2023-12-14T01:47:22;0.00;;;0.00;;
30872;SDS011;17579;42.690;2.586;2023-12-14T01:49:51;0.20;;;0.20;;
30872;SDS011;17579;42.690;2.586;2023-12-14T01:52:17;0.00;;;0.00;;
30872;SDS011;17579;42.690;2.586;2023-12-14T01:54:43;0.00;;;0.00;;
30872;SDS011;17579;42.690;2.586;2023-12-14T01:57:08;0.00;;;0.00;;
30872;SDS011;17579;42.690;2.586;2023-12-14T01:59:34;0.10;;;0.10;;
30872;SDS011;17579;42.690;2.586;2023-12-14T02:02:02;0.00;;;0.00;;
30872;SDS011;17579;42.690;2.586;2023-12-14T02:04:48;0.03;;;0.03;;
30872;SDS011;17579;42.690;2.586;2023-12-14T02:07:14;0.10;;;0.10;;
30872;SDS011;17579;42.690;2.586;2023-12-14T02:09:39;0.10;;;0.10;;
30872;SDS011;17579;42.690;2.586;2023-12-14T02:12:16;0.20;;;0.20;;
30872;SDS011;17579;42.690;2.586;2023-12-14T02:14:42;0.75;;;0.20;;
30872;SDS011;17579;42.690;2.586;2023-12-14T02:17:10;0.10;;;0.10;;
30872;SDS011;17579;42.690;2.586;2023-12-14T02:19:36;0.20;;;0.20;;
30872;SDS011;17579;42.690;2.586;2023-12-14T02:22:04;0.77;;;0.30;;
30872;SDS011;17579;42.690;2.586;2023-12-14T02:24:38;0.20;;;0.20;;
30872;SDS011;17579;42.690;2.586;2023-12-14T02:27:04;1.33;;;0.28;;
30872;SDS011;17579;42.690;2.586;2023-12-14T02:29:30;0.85;;;0.38;;
30872;SDS011;17579;42.690;2.586;2023-12-14T02:32:05;0.35;;;0.30;;
30872;SDS011;17579;42.690;2.586;2023-12-14T02:34:31;0.60;;;0.28;;
30872;SDS011;17579;42.690;2.586;2023-12-14T02:36:59;0.35;;;0.30;;
30872;SDS011;17579;42.690;2.586;2023-12-14T02:39:25;0.30;;;0.30;;
30872;SDS011;17579;42.690;2.586;2023-12-14T02:41:53;0.40;;;0.20;;
30872;SDS011;17579;42.690;2.586;2023-12-14T02:44:30;0.28;;;0.13;;
30872;SDS011;17579;42.690;2.586;2023-12-14T02:47:17;0.28;;;0.28;;
30872;SDS011;17579;42.690;2.586;2023-12-14T02:49:49;1.35;;;0.25;;
30872;SDS011;17579;42.690;2.586;2023-12-14T02:52:14;0.75;;;0.30;;
30872;SDS011;17579;42.690;2.586;2023-12-14T02:54:40;0.90;;;0.30;;
30872;SDS011;17579;42.690;2.586;2023-12-14T02:57:29;0.40;;;0.40;;
30872;SDS011;17579;42.690;2.586;2023-12-14T03:00:17;0.93;;;0.20;;
30872;SDS011;17579;42.690;2.586;2023-12-14T03:02:43;0.35;;;0.32;;
30872;SDS011;17579;42.690;2.586;2023-12-14T03:05:09;1.02;;;0.40;;
30872;SDS011;17579;42.690;2.586;2023-12-14T03:07:34;0.40;;;0.40;;
30872;SDS011;17579;42.690;2.586;2023-12-14T03:10:03;0.32;;;0.32;;
30872;SDS011;17579;42.690;2.586;2023-12-14T03:12:31;0.90;;;0.60;;
30872;SDS011;17579;42.690;2.586;2023-12-14T03:14:57;1.20;;;0.60;;
30872;SDS011;17579;42.690;2.586;2023-12-14T03:17:23;1.02;;;0.52;;
30872;SDS011;17579;42.690;2.586;2023-12-14T03:19:48;1.05;;;0.50;;
30872;SDS011;17579;42.690;2.586;2023-12-14T03:22:14;2.15;;;0.60;;
30872;SDS011;17579;42.690;2.586;2023-12-14T03:24:42;2.20;;;0.60;;
30872;SDS011;17579;42.690;2.586;2023-12-14T03:27:17;1.45;;;0.55;;
30872;SDS011;17579;42.690;2.586;2023-12-14T03:29:45;1.00;;;0.60;;
30872;SDS011;17579;42.690;2.586;2023-12-14T03:32:11;2.38;;;0.70;;
30872;SDS011;17579;42.690;2.586;2023-12-14T03:34:37;1.52;;;1.10;;
30872;SDS011;17579;42.690;2.586;2023-12-14T03:37:08;0.82;;;0.40;;
30872;SDS011;17579;42.690;2.586;2023-12-14T03:39:33;0.95;;;0.65;;
30872;SDS011;17579;42.690;2.586;2023-12-14T03:41:59;0.45;;;0.30;;
30872;SDS011;17579;42.690;2.586;2023-12-14T03:44:24;1.13;;;0.57;;
30872;SDS011;17579;42.690;2.586;2023-12-14T03:46:52;1.00;;;0.43;;
30872;SDS011;17579;42.690;2.586;2023-12-14T03:49:25;0.40;;;0.40;;
30872;SDS011;17579;42.690;2.586;2023-12-14T03:52:01;0.73;;;0.38;;
30872;SDS011;17579;42.690;2.586;2023-12-14T03:54:26;1.38;;;0.52;;
30872;SDS011;17579;42.690;2.586;2023-12-14T03:57:02;1.55;;;0.65;;
30872;SDS011;17579;42.690;2.586;2023-12-14T03:59:28;1.15;;;0.30;;
30872;SDS011;17579;42.690;2.586;2023-12-14T04:01:54;1.90;;;0.50;;
30872;SDS011;17579;42.690;2.586;2023-12-14T04:04:19;0.47;;;0.47;;
30872;SDS011;17579;42.690;2.586;2023-12-14T04:06:45;0.13;;;0.13;;
30872;SDS011;17579;42.690;2.586;2023-12-14T04:09:13;0.10;;;0.10;;
30872;SDS011;17579;42.690;2.586;2023-12-14T04:11:41;1.45;;;0.47;;
30872;SDS011;17579;42.690;2.586;2023-12-14T04:14:12;2.47;;;0.40;;
30872;SDS011;17579;42.690;2.586;2023-12-14T04:17:02;0.25;;;0.20;;
30872;SDS011;17579;42.690;2.586;2023-12-14T04:19:28;0.40;;;0.40;;
30872;SDS011;17579;42.690;2.586;2023-12-14T04:22:04;0.75;;;0.32;;
30872;SDS011;17579;42.690;2.586;2023-12-14T04:24:41;0.30;;;0.30;;
30872;SDS011;17579;42.690;2.586;2023-12-14T04:27:27;0.20;;;0.20;;
30872;SDS011;17579;42.690;2.586;2023-12-14T04:29:57;0.35;;;0.30;;
30872;SDS011;17579;42.690;2.586;2023-12-14T04:32:22;0.40;;;0.30;;
30872;SDS011;17579;42.690;2.586;2023-12-14T04:37:50;0.30;;;0.30;;
30872;SDS011;17579;42.690;2.586;2023-12-14T04:40:18;1.17;;;0.20;;
30872;SDS011;17579;42.690;2.586;2023-12-14T04:42:47;0.95;;;0.28;;
30872;SDS011;17579;42.690;2.586;2023-12-14T04:45:15;0.20;;;0.10;;
30872;SDS011;17579;42.690;2.586;2023-12-14T04:48:10;0.13;;;0.10;;
30872;SDS011;17579;42.690;2.586;2023-12-14T04:50:35;0.10;;;0.10;;
30872;SDS011;17579;42.690;2.586;2023-12-14T04:53:01;0.22;;;0.20;;
30872;SDS011;17579;42.690;2.586;2023-12-14T04:55:29;0.10;;;0.10;;
30872;SDS011;17579;42.690;2.586;2023-12-14T04:57:55;0.85;;;0.40;;
30872;SDS011;17579;42.690;2.586;2023-12-14T05:00:21;0.20;;;0.20;;
30872;SDS011;17579;42.690;2.586;2023-12-14T05:02:47;0.40;;;0.40;;
30872;SDS011;17579;42.690;2.586;2023-12-14T05:05:18;1.17;;;0.40;;
30872;SDS011;17579;42.690;2.586;2023-12-14T05:07:43;0.88;;;0.30;;
30872;SDS011;17579;42.690;2.586;2023-12-14T05:10:12;0.43;;;0.40;;
30872;SDS011;17579;42.690;2.586;2023-12-14T05:12:38;0.50;;;0.40;;
30872;SDS011;17579;42.690;2.586;2023-12-14T05:15:05;0.55;;;0.55;;
30872;SDS011;17579;42.690;2.586;2023-12-14T05:17:33;1.55;;;0.50;;
30872;SDS011;17579;42.690;2.586;2023-12-14T05:20:07;0.63;;;0.40;;
30872;SDS011;17579;42.690;2.586;2023-12-14T05:22:34;0.32;;;0.30;;
30872;SDS011;17579;42.690;2.586;2023-12-14T05:25:09;0.77;;;0.40;;
30872;SDS011;17579;42.690;2.586;2023-12-14T05:27:35;0.65;;;0.40;;
30872;SDS011;17579;42.690;2.586;2023-12-14T05:30:00;1.65;;;0.32;;
30872;SDS011;17579;42.690;2.586;2023-12-14T05:32:32;0.50;;;0.22;;
30872;SDS011;17579;42.690;2.586;2023-12-14T05:35:01;0.20;;;0.20;;
30872;SDS011;17579;42.690;2.586;2023-12-14T05:37:30;0.10;;;0.10;;
30872;SDS011;17579;42.690;2.586;2023-12-14T05:39:59;0.10;;;0.10;;
30872;SDS011;17579;42.690;2.586;2023-12-14T05:42:24;0.20;;;0.20;;
30872;SDS011;17579;42.690;2.586;2023-12-14T05:44:50;0.13;;;0.13;;
30872;SDS011;17579;42.690;2.586;2023-12-14T05:47:16;0.30;;;0.13;;
30872;SDS011;17579;42.690;2.586;2023-12-14T05:49:44;1.27;;;0.20;;
30872;SDS011;17579;42.690;2.586;2023-12-14T05:52:10;0.10;;;0.10;;
30872;SDS011;17579;42.690;2.586;2023-12-14T05:54:37;0.10;;;0.10;;
30872;SDS011;17579;42.690;2.586;2023-12-14T05:57:28;0.43;;;0.30;;
30872;SDS011;17579;42.690;2.586;2023-12-14T05:59:57;0.95;;;0.30;;
30872;SDS011;17579;42.690;2.586;2023-12-14T06:02:23;1.38;;;0.20;;
30872;SDS011;17579;42.690;2.586;2023-12-14T06:04:51;0.50;;;0.40;;
30872;SDS011;17579;42.690;2.586;2023-12-14T06:07:24;0.30;;;0.30;;
30872;SDS011;17579;42.690;2.586;2023-12-14T06:09:52;0.52;;;0.50;;
30872;SDS011;17579;42.690;2.586;2023-12-14T06:12:20;0.20;;;0.20;;
30872;SDS011;17579;42.690;2.586;2023-12-14T06:14:46;0.40;;;0.28;;
30872;SDS011;17579;42.690;2.586;2023-12-14T06:17:11;0.98;;;0.30;;
30872;SDS011;17579;42.690;2.586;2023-12-14T06:19:43;0.45;;;0.22;;
30872;SDS011;17579;42.690;2.586;2023-12-14T06:22:16;0.30;;;0.30;;
30872;SDS011;17579;42.690;2.586;2023-12-14T06:24:42;0.30;;;0.30;;
30872;SDS011;17579;42.690;2.586;2023-12-14T06:27:08;0.80;;;0.47;;
30872;SDS011;17579;42.690;2.586;2023-12-14T06:29:39;0.85;;;0.50;;
30872;SDS011;17579;42.690;2.586;2023-12-14T06:32:05;1.23;;;0.25;;
30872;SDS011;17579;42.690;2.586;2023-12-14T06:34:31;0.98;;;0.40;;
30872;SDS011;17579;42.690;2.586;2023-12-14T06:36:59;0.30;;;0.30;;
30872;SDS011;17579;42.690;2.586;2023-12-14T06:39:28;0.50;;;0.20;;
30872;SDS011;17579;42.690;2.586;2023-12-14T06:41:54;1.27;;;0.25;;
30872;SDS011;17579;42.690;2.586;2023-12-14T06:44:29;0.85;;;0.40;;
30872;SDS011;17579;42.690;2.586;2023-12-14T06:46:56;0.40;;;0.30;;
30872;SDS011;17579;42.690;2.586;2023-12-14T06:49:40;0.47;;;0.20;;
30872;SDS011;17579;42.690;2.586;2023-12-14T06:52:08;0.20;;;0.20;;
30872;SDS011;17579;42.690;2.586;2023-12-14T06:54:34;1.88;;;0.43;;
30872;SDS011;17579;42.690;2.586;2023-12-14T06:57:03;0.10;;;0.10;;
30872;SDS011;17579;42.690;2.586;2023-12-14T06:59:29;0.98;;;0.40;;
30872;SDS011;17579;42.690;2.586;2023-12-14T07:02:03;0.82;;;0.50;;
30872;SDS011;17579;42.690;2.586;2023-12-14T07:04:29;1.98;;;0.50;;
30872;SDS011;17579;42.690;2.586;2023-12-14T07:06:54;1.67;;;0.40;;
30872;SDS011;17579;42.690;2.586;2023-12-14T07:09:29;0.30;;;0.30;;
30872;SDS011;17579;42.690;2.586;2023-12-14T07:12:00;0.65;;;0.50;;
30872;SDS011;17579;42.690;2.586;2023-12-14T07:14:27;0.70;;;0.50;;
30872;SDS011;17579;42.690;2.586;2023-12-14T07:16:53;0.70;;;0.40;;
30872;SDS011;17579;42.690;2.586;2023-12-14T07:19:19;0.30;;;0.30;;
30872;SDS011;17579;42.690;2.586;2023-12-14T07:21:45;1.08;;;0.50;;
30872;SDS011;17579;42.690;2.586;2023-12-14T07:24:13;0.47;;;0.40;;
30872;SDS011;17579;42.690;2.586;2023-12-14T07:26:42;1.52;;;0.50;;
30872;SDS011;17579;42.690;2.586;2023-12-14T07:29:07;2.15;;;0.60;;
30872;SDS011;17579;42.690;2.586;2023-12-14T07:31:33;0.45;;;0.40;;
30872;SDS011;17579;42.690;2.586;2023-12-14T07:33:59;0.80;;;0.50;;
30872;SDS011;17579;42.690;2.586;2023-12-14T07:36:24;0.40;;;0.40;;
30872;SDS011;17579;42.690;2.586;2023-12-14T07:38:50;1.75;;;0.47;;
30872;SDS011;17579;42.690;2.586;2023-12-14T07:41:16;0.93;;;0.30;;
30872;SDS011;17579;42.690;2.586;2023-12-14T07:43:41;1.23;;;0.40;;
30872;SDS011;17579;42.690;2.586;2023-12-14T07:46:07;0.55;;;0.32;;
30872;SDS011;17579;42.690;2.586;2023-12-14T07:48:33;0.47;;;0.35;;
30872;SDS011;17579;42.690;2.586;2023-12-14T07:50:59;0.43;;;0.30;;
30872;SDS011;17579;42.690;2.586;2023-12-14T07:53:24;0.32;;;0.32;;
30872;SDS011;17579;42.690;2.586;2023-12-14T07:55:50;1.70;;;0.30;;
30872;SDS011;17579;42.690;2.586;2023-12-14T07:58:18;0.63;;;0.25;;
30872;SDS011;17579;42.690;2.586;2023-12-14T08:00:50;0.55;;;0.30;;
30872;SDS011;17579;42.690;2.586;2023-12-14T08:03:21;0.30;;;0.25;;
30872;SDS011;17579;42.690;2.586;2023-12-14T08:05:49;0.20;;;0.20;;
30872;SDS011;17579;42.690;2.586;2023-12-14T08:08:17;2.08;;;0.30;;
30872;SDS011;17579;42.690;2.586;2023-12-14T08:10:43;0.22;;;0.22;;
30872;SDS011;17579;42.690;2.586;2023-12-14T08:13:20;0.32;;;0.30;;
30872;SDS011;17579;42.690;2.586;2023-12-14T08:15:46;0.40;;;0.20;;
30872;SDS011;17579;42.690;2.586;2023-12-14T08:18:12;0.60;;;0.40;;
30872;SDS011;17579;42.690;2.586;2023-12-14T08:20:40;0.25;;;0.25;;
30872;SDS011;17579;42.690;2.586;2023-12-14T08:23:11;1.05;;;0.30;;
30872;SDS011;17579;42.690;2.586;2023-12-14T08:25:39;0.88;;;0.30;;
30872;SDS011;17579;42.690;2.586;2023-12-14T08:28:04;0.20;;;0.20;;
30872;SDS011;17579;42.690;2.586;2023-12-14T08:30:35;0.20;;;0.20;;
30872;SDS011;17579;42.690;2.586;2023-12-14T08:33:03;0.30;;;0.20;;
30872;SDS011;17579;42.690;2.586;2023-12-14T08:35:28;0.30;;;0.30;;
30872;SDS011;17579;42.690;2.586;2023-12-14T08:37:54;0.30;;;0.30;;
30872;SDS011;17579;42.690;2.586;2023-12-14T08:43:05;0.43;;;0.40;;
30872;SDS011;17579;42.690;2.586;2023-12-14T08:45:31;0.38;;;0.35;;
30872;SDS011;17579;42.690;2.586;2023-12-14T08:47:57;0.40;;;0.40;;
30872;SDS011;17579;42.690;2.586;2023-12-14T08:50:22;0.90;;;0.38;;
30872;SDS011;17579;42.690;2.586;2023-12-14T08:52:57;0.20;;;0.20;;
30872;SDS011;17579;42.690;2.586;2023-12-14T08:55:24;0.73;;;0.38;;
30872;SDS011;17579;42.690;2.586;2023-12-14T08:57:56;1.50;;;0.50;;
30872;SDS011;17579;42.690;2.586;2023-12-14T09:00:27;5.28;;;0.60;;
30872;SDS011;17579;42.690;2.586;2023-12-14T09:02:52;0.40;;;0.40;;
30872;SDS011;17579;42.690;2.586;2023-12-14T09:05:18;1.85;;;0.40;;
30872;SDS011;17579;42.690;2.586;2023-12-14T09:07:46;1.50;;;0.47;;
30872;SDS011;17579;42.690;2.586;2023-12-14T09:10:17;0.45;;;0.25;;
30872;SDS011;17579;42.690;2.586;2023-12-14T09:12:43;0.47;;;0.28;;
30872;SDS011;17579;42.690;2.586;2023-12-14T09:15:32;1.33;;;0.38;;
30872;SDS011;17579;42.690;2.586;2023-12-14T09:18:00;1.70;;;0.40;;
30872;SDS011;17579;42.690;2.586;2023-12-14T09:20:31;1.77;;;0.30;;
30872;SDS011;17579;42.690;2.586;2023-12-14T09:22:57;0.40;;;0.30;;
30872;SDS011;17579;42.690;2.586;2023-12-14T09:25:22;0.73;;;0.30;;
30872;SDS011;17579;42.690;2.586;2023-12-14T09:27:51;0.80;;;0.20;;
30872;SDS011;17579;42.690;2.586;2023-12-14T09:30:19;1.08;;;0.55;;
30872;SDS011;17579;42.690;2.586;2023-12-14T09:32:45;1.23;;;0.30;;
30872;SDS011;17579;42.690;2.586;2023-12-14T09:35:35;0.13;;;0.13;;
30872;SDS011;17579;42.690;2.586;2023-12-14T09:38:03;1.98;;;0.38;;
30872;SDS011;17579;42.690;2.586;2023-12-14T09:40:31;0.47;;;0.38;;
30872;SDS011;17579;42.690;2.586;2023-12-14T09:42:57;0.20;;;0.20;;
30872;SDS011;17579;42.690;2.586;2023-12-14T09:45:23;0.30;;;0.30;;
30872;SDS011;17579;42.690;2.586;2023-12-14T09:47:52;0.47;;;0.30;;
30872;SDS011;17579;42.690;2.586;2023-12-14T09:50:19;1.38;;;0.30;;
30872;SDS011;17579;42.690;2.586;2023-12-14T09:53:26;0.22;;;0.17;;
30872;SDS011;17579;42.690;2.586;2023-12-14T09:56:12;1.50;;;0.30;;
30872;SDS011;17579;42.690;2.586;2023-12-14T09:58:37;0.70;;;0.40;;
30872;SDS011;17579;42.690;2.586;2023-12-14T10:01:11;0.80;;;0.40;;
30872;SDS011;17579;42.690;2.586;2023-12-14T10:06:32;1.13;;;0.30;;
30872;SDS011;17579;42.690;2.586;2023-12-14T10:09:09;0.70;;;0.30;;
30872;SDS011;17579;42.690;2.586;2023-12-14T10:11:35;0.80;;;0.45;;
30872;SDS011;17579;42.690;2.586;2023-12-14T10:16:35;1.73;;;0.47;;
30872;SDS011;17579;42.690;2.586;2023-12-14T10:19:01;0.50;;;0.47;;
30872;SDS011;17579;42.690;2.586;2023-12-14T10:21:27;0.45;;;0.30;;
30872;SDS011;17579;42.690;2.586;2023-12-14T10:26:39;0.20;;;0.20;;
30872;SDS011;17579;42.690;2.586;2023-12-14T10:29:05;0.20;;;0.20;;
30872;SDS011;17579;42.690;2.586;2023-12-14T10:31:31;0.43;;;0.30;;
30872;SDS011;17579;42.690;2.586;2023-12-14T10:34:03;0.90;;;0.30;;
30872;SDS011;17579;42.690;2.586;2023-12-14T10:36:30;0.22;;;0.22;;
30872;SDS011;17579;42.690;2.586;2023-12-14T10:38:59;1.13;;;0.20;;
30872;SDS011;17579;42.690;2.586;2023-12-14T10:41:33;0.38;;;0.38;;
30872;SDS011;17579;42.690;2.586;2023-12-14T10:43:59;0.80;;;0.40;;
30872;SDS011;17579;42.690;2.586;2023-12-14T10:46:47;0.20;;;0.20;;
30872;SDS011;17579;42.690;2.586;2023-12-14T10:49:17;0.52;;;0.30;;
30872;SDS011;17579;42.690;2.586;2023-12-14T10:51:54;0.20;;;0.20;;
30872;SDS011;17579;42.690;2.586;2023-12-14T10:54:23;0.70;;;0.20;;
30872;SDS011;17579;42.690;2.586;2023-12-14T10:56:54;0.63;;;0.28;;
30872;SDS011;17579;42.690;2.586;2023-12-14T10:59:21;0.90;;;0.35;;
30872;SDS011;17579;42.690;2.586;2023-12-14T11:02:09;0.38;;;0.20;;
30872;SDS011;17579;42.690;2.586;2023-12-14T11:04:53;0.90;;;0.40;;
30872;SDS011;17579;42.690;2.586;2023-12-14T11:07:46;0.40;;;0.40;;
30872;SDS011;17579;42.690;2.586;2023-12-14T11:10:13;1.65;;;0.77;;
30872;SDS011;17579;42.690;2.586;2023-12-14T11:15:12;0.60;;;0.28;;
30872;SDS011;17579;42.690;2.586;2023-12-14T11:17:37;0.20;;;0.20;;
30872;SDS011;17579;42.690;2.586;2023-12-14T11:22:33;0.20;;;0.20;;
30872;SDS011;17579;42.690;2.586;2023-12-14T11:25:06;0.68;;;0.30;;
30872;SDS011;17579;42.690;2.586;2023-12-14T11:27:42;0.73;;;0.30;;
30872;SDS011;17579;42.690;2.586;2023-12-14T11:30:10;0.35;;;0.20;;
30872;SDS011;17579;42.690;2.586;2023-12-14T11:32:41;1.20;;;0.45;;
30872;SDS011;17579;42.690;2.586;2023-12-14T11:35:10;0.50;;;0.40;;
30872;SDS011;17579;42.690;2.586;2023-12-14T11:37:40;0.40;;;0.40;;
30872;SDS011;17579;42.690;2.586;2023-12-14T11:40:17;0.82;;;0.25;;
30872;SDS011;17579;42.690;2.586;2023-12-14T11:45:40;0.17;;;0.17;;
30872;SDS011;17579;42.690;2.586;2023-12-14T11:48:10;1.65;;;0.40;;
30872;SDS011;17579;42.690;2.586;2023-12-14T11:50:37;0.25;;;0.25;;
30872;SDS011;17579;42.690;2.586;2023-12-14T11:53:06;0.75;;;0.40;;
30872;SDS011;17579;42.690;2.586;2023-12-14T11:55:37;0.30;;;0.30;;
30872;SDS011;17579;42.690;2.586;2023-12-14T11:58:13;2.00;;;0.50;;
30872;SDS011;17579;42.690;2.586;2023-12-14T12:00:47;0.80;;;0.43;;
30872;SDS011;17579;42.690;2.586;2023-12-14T12:05:40;1.02;;;0.38;;
30872;SDS011;17579;42.690;2.586;2023-12-14T12:08:08;0.88;;;0.30;;
30872;SDS011;17579;42.690;2.586;2023-12-14T12:10:37;1.95;;;0.50;;
30872;SDS011;17579;42.690;2.586;2023-12-14T12:13:19;0.77;;;0.57;;
30872;SDS011;17579;42.690;2.586;2023-12-14T12:15:46;5.30;;;0.50;;
30872;SDS011;17579;42.690;2.586;2023-12-14T12:18:13;0.57;;;0.40;;
30872;SDS011;17579;42.690;2.586;2023-12-14T12:20:41;1.33;;;0.40;;
30872;SDS011;17579;42.690;2.586;2023-12-14T12:23:07;1.88;;;0.60;;
30872;SDS011;17579;42.690;2.586;2023-12-14T12:25:36;1.70;;;0.43;;
30872;SDS011;17579;42.690;2.586;2023-12-14T12:28:04;1.38;;;0.50;;
30872;SDS011;17579;42.690;2.586;2023-12-14T12:30:41;0.95;;;0.40;;
30872;SDS011;17579;42.690;2.586;2023-12-14T12:33:07;1.58;;;0.60;;
30872;SDS011;17579;42.690;2.586;2023-12-14T12:35:46;1.48;;;0.60;;
30872;SDS011;17579;42.690;2.586;2023-12-14T12:38:11;0.50;;;0.50;;
30872;SDS011;17579;42.690;2.586;2023-12-14T12:41:02;0.77;;;0.50;;
30872;SDS011;17579;42.690;2.586;2023-12-14T12:43:29;1.80;;;0.50;;
30872;SDS011;17579;42.690;2.586;2023-12-14T12:45:54;0.75;;;0.47;;
30872;SDS011;17579;42.690;2.586;2023-12-14T12:48:23;1.08;;;0.50;;
30872;SDS011;17579;42.690;2.586;2023-12-14T12:50:58;0.57;;;0.57;;
30872;SDS011;17579;42.690;2.586;2023-12-14T12:53:23;1.00;;;0.45;;
30872;SDS011;17579;42.690;2.586;2023-12-14T12:55:49;0.57;;;0.57;;
30872;SDS011;17579;42.690;2.586;2023-12-14T12:58:15;1.20;;;0.50;;
30872;SDS011;17579;42.690;2.586;2023-12-14T13:00:53;2.88;;;0.68;;
30872;SDS011;17579;42.690;2.586;2023-12-14T13:03:19;0.43;;;0.40;;
30872;SDS011;17579;42.690;2.586;2023-12-14T13:05:52;1.65;;;0.55;;
30872;SDS011;17579;42.690;2.586;2023-12-14T13:08:23;1.85;;;0.80;;
30872;SDS011;17579;42.690;2.586;2023-12-14T13:10:51;1.63;;;0.50;;
30872;SDS011;17579;42.690;2.586;2023-12-14T13:13:19;1.10;;;0.65;;
30872;SDS011;17579;42.690;2.586;2023-12-14T13:15:45;2.75;;;0.57;;
30872;SDS011;17579;42.690;2.586;2023-12-14T13:18:10;2.08;;;0.65;;
30872;SDS011;17579;42.690;2.586;2023-12-14T13:20:59;0.45;;;0.43;;
30872;SDS011;17579;42.690;2.586;2023-12-14T13:23:27;3.42;;;0.73;;
30872;SDS011;17579;42.690;2.586;2023-12-14T13:25:55;0.47;;;0.40;;
30872;SDS011;17579;42.690;2.586;2023-12-14T13:28:24;1.23;;;0.55;;
30872;SDS011;17579;42.690;2.586;2023-12-14T13:30:49;1.33;;;0.60;;
30872;SDS011;17579;42.690;2.586;2023-12-14T13:33:15;0.93;;;0.40;;
30872;SDS011;17579;42.690;2.586;2023-12-14T13:35:41;1.20;;;0.63;;
30872;SDS011;17579;42.690;2.586;2023-12-14T13:38:08;0.95;;;0.55;;
30872;SDS011;17579;42.690;2.586;2023-12-14T13:40:33;1.92;;;0.50;;
30872;SDS011;17579;42.690;2.586;2023-12-14T13:42:59;0.95;;;0.60;;
30872;SDS011;17579;42.690;2.586;2023-12-14T13:45:28;0.68;;;0.50;;
30872;SDS011;17579;42.690;2.586;2023-12-14T13:47:55;1.95;;;0.63;;
30872;SDS011;17579;42.690;2.586;2023-12-14T13:50:21;1.08;;;0.60;;
30872;SDS011;17579;42.690;2.586;2023-12-14T13:52:57;2.20;;;0.52;;
30872;SDS011;17579;42.690;2.586;2023-12-14T13:55:23;0.60;;;0.50;;
30872;SDS011;17579;42.690;2.586;2023-12-14T13:57:54;0.40;;;0.40;;
30872;SDS011;17579;42.690;2.586;2023-12-14T14:00:23;0.98;;;0.60;;
30872;SDS011;17579;42.690;2.586;2023-12-14T14:02:52;0.70;;;0.55;;
30872;SDS011;17579;42.690;2.586;2023-12-14T14:05:17;2.47;;;0.50;;
30872;SDS011;17579;42.690;2.586;2023-12-14T14:07:43;0.57;;;0.52;;
30872;SDS011;17579;42.690;2.586;2023-12-14T14:10:12;0.65;;;0.40;;
30872;SDS011;17579;42.690;2.586;2023-12-14T14:12:38;1.48;;;0.50;;
30872;SDS011;17579;42.690;2.586;2023-12-14T14:15:04;1.42;;;0.60;;
30872;SDS011;17579;42.690;2.586;2023-12-14T14:17:31;0.57;;;0.50;;
30872;SDS011;17579;42.690;2.586;2023-12-14T14:20:07;0.52;;;0.43;;
30872;SDS011;17579;42.690;2.586;2023-12-14T14:22:50;0.50;;;0.43;;
30872;SDS011;17579;42.690;2.586;2023-12-14T14:25:18;2.17;;;0.63;;
30872;SDS011;17579;42.690;2.586;2023-12-14T14:27:44;1.45;;;0.40;;
30872;SDS011;17579;42.690;2.586;2023-12-14T14:30:12;1.75;;;0.80;;
30872;SDS011;17579;42.690;2.586;2023-12-14T14:33:03;1.30;;;0.45;;
30872;SDS011;17579;42.690;2.586;2023-12-14T14:35:29;0.68;;;0.40;;
30872;SDS011;17579;42.690;2.586;2023-12-14T14:38:02;0.98;;;0.57;;
30872;SDS011;17579;42.690;2.586;2023-12-14T14:40:34;0.50;;;0.50;;
30872;SDS011;17579;42.690;2.586;2023-12-14T14:45:47;3.03;;;0.50;;
30872;SDS011;17579;42.690;2.586;2023-12-14T14:48:15;0.77;;;0.50;;
30872;SDS011;17579;42.690;2.586;2023-12-14T14:50:44;1.75;;;0.50;;
30872;SDS011;17579;42.690;2.586;2023-12-14T14:53:09;1.27;;;0.40;;
30872;SDS011;17579;42.690;2.586;2023-12-14T14:55:38;1.85;;;0.73;;
30872;SDS011;17579;42.690;2.586;2023-12-14T14:58:03;0.60;;;0.47;;
30872;SDS011;17579;42.690;2.586;2023-12-14T15:00:39;2.28;;;0.60;;
30872;SDS011;17579;42.690;2.586;2023-12-14T15:03:04;0.77;;;0.52;;
30872;SDS011;17579;42.690;2.586;2023-12-14T15:05:34;1.27;;;0.57;;
30872;SDS011;17579;42.690;2.586;2023-12-14T15:08:03;0.50;;;0.40;;
30872;SDS011;17579;42.690;2.586;2023-12-14T15:10:30;1.05;;;0.55;;
30872;SDS011;17579;42.690;2.586;2023-12-14T15:13:16;1.17;;;0.60;;
30872;SDS011;17579;42.690;2.586;2023-12-14T15:15:42;0.75;;;0.50;;
30872;SDS011;17579;42.690;2.586;2023-12-14T15:18:08;1.00;;;0.47;;
30872;SDS011;17579;42.690;2.586;2023-12-14T15:20:35;0.63;;;0.50;;
30872;SDS011;17579;42.690;2.586;2023-12-14T15:23:02;2.13;;;0.63;;
30872;SDS011;17579;42.690;2.586;2023-12-14T15:25:30;0.57;;;0.50;;
30872;SDS011;17579;42.690;2.586;2023-12-14T15:27:58;2.33;;;0.70;;